Time;durP1;ratioP1;P1;durP2;ratioP2;P2;SDS_P1;SDS_P2;PMS_P1;PMS_P2;Temp;Humidity;BMP_temperature;BMP_pressure;BME280_temperature;BME280_humidity;BME280_pressure;Samples;Min_cycle;Max_cycle;Signal;HPM_P1;HPM_P2
2022/09/19 00:01:07;;;;;;;12.85;2.45;;;;;;;;;;5035260;28;20044;-58
2022/09/19 00:03:33;;;;;;;9.73;2.30;;;;;;;;;;5031519;28;20037;-56
2022/09/19 00:05:58;;;;;;;11.10;2.50;;;;;;;;;;5017110;28;20041;-56
2022/09/19 00:08:24;;;;;;;7.53;2.10;;;;;;;;;;5030765;28;20033;-53
2022/09/19 00:10:50;;;;;;;13.73;2.35;;;;;;;;;;5037840;28;20039;-59
2022/09/19 00:13:16;;;;;;;27.15;4.05;;;;;;;;;;5032211;28;20529;-57
2022/09/19 00:15:49;;;;;;;13.30;3.20;;;;;;;;;;5040587;28;20176;-54
2022/09/19 00:18:16;;;;;;;8.77;2.00;;;;;;;;;;5030445;28;20097;-59
2022/09/19 00:20:47;;;;;;;15.48;2.80;;;;;;;;;;5030082;28;20052;-53
2022/09/19 00:26:09;;;;;;;12.40;2.28;;;;;;;;;;5028870;28;20405;-55
2022/09/19 00:28:35;;;;;;;15.63;2.30;;;;;;;;;;5042466;28;20091;-56
2022/09/19 00:31:01;;;;;;;9.20;2.35;;;;;;;;;;5031369;28;20037;-55
2022/09/19 00:33:30;;;;;;;12.95;2.53;;;;;;;;;;5026973;28;20167;-57
2022/09/19 00:36:03;;;;;;;14.98;2.15;;;;;;;;;;5030603;28;20043;-54
2022/09/19 00:38:28;;;;;;;13.63;3.08;;;;;;;;;;5026499;28;20036;-57
2022/09/19 00:40:55;;;;;;;9.52;2.40;;;;;;;;;;5037950;28;20037;-54
2022/09/19 00:43:22;;;;;;;10.20;2.40;;;;;;;;;;5027590;28;20404;-55
2022/09/19 00:45:48;;;;;;;8.27;2.28;;;;;;;;;;5031299;28;20053;-54
2022/09/19 00:48:15;;;;;;;13.40;2.30;;;;;;;;;;5012424;28;20041;-55
2022/09/19 00:50:47;;;;;;;12.10;2.63;;;;;;;;;;5028479;28;20061;-52
2022/09/19 00:53:16;;;;;;;9.18;2.53;;;;;;;;;;5036460;28;20037;-56
2022/09/19 00:55:42;;;;;;;16.02;3.03;;;;;;;;;;5031651;28;20121;-53
2022/09/19 00:58:26;;;;;;;14.90;2.30;;;;;;;;;;5030683;28;20121;-55
2022/09/19 01:00:52;;;;;;;12.20;2.60;;;;;;;;;;5029946;28;20037;-53
2022/09/19 01:03:18;;;;;;;15.30;2.80;;;;;;;;;;5031737;28;20033;-60
2022/09/19 01:06:02;;;;;;;15.13;2.40;;;;;;;;;;5030246;28;20383;-54
2022/09/19 01:08:47;;;;;;;10.38;2.30;;;;;;;;;;5021815;28;20029;-55
2022/09/19 01:11:21;;;;;;;17.85;2.60;;;;;;;;;;5030442;28;20029;-57
2022/09/19 01:14:25;;;;;;;19.17;2.97;;;;;;;;;;5029399;28;20033;-57
2022/09/19 01:16:56;;;;;;;11.10;2.20;;;;;;;;;;5019660;28;20485;-55
2022/09/19 01:20:10;;;;;;;16.58;2.45;;;;;;;;;;5030013;28;20045;-55
2022/09/19 01:22:48;;;;;;;13.68;2.53;;;;;;;;;;5023954;28;20124;-55
2022/09/19 01:25:46;;;;;;;11.38;2.70;;;;;;;;;;5031468;28;20029;-53
2022/09/19 01:28:27;;;;;;;16.98;2.20;;;;;;;;;;5022011;28;20053;-56
2022/09/19 01:31:16;;;;;;;14.38;2.20;;;;;;;;;;5030882;28;20112;-55
2022/09/19 01:33:40;;;;;;;12.90;2.20;;;;;;;;;;5038286;28;20209;-55
2022/09/19 01:36:09;;;;;;;10.85;2.10;;;;;;;;;;5028748;28;20045;-56
2022/09/19 01:38:38;;;;;;;10.32;2.28;;;;;;;;;;5025047;28;20040;-54
2022/09/19 01:41:07;;;;;;;12.35;2.15;;;;;;;;;;5031213;28;21587;-57
2022/09/19 01:43:33;;;;;;;13.77;2.35;;;;;;;;;;5037847;28;20036;-57
2022/09/19 01:46:07;;;;;;;11.82;2.03;;;;;;;;;;5028887;28;20046;-54
2022/09/19 01:48:40;;;;;;;14.60;2.67;;;;;;;;;;5028713;28;20394;-59
2022/09/19 01:51:11;;;;;;;15.35;2.33;;;;;;;;;;5039689;28;20037;-57
2022/09/19 01:53:52;;;;;;;;;;;;;;;;;;5037858;28;20045;-59
2022/09/19 01:56:43;;;;;;;13.52;2.30;;;;;;;;;;5023797;28;19967;-58
2022/09/19 01:59:09;;;;;;;15.95;2.10;;;;;;;;;;5035861;28;20458;-58
2022/09/19 02:01:58;;;;;;;13.05;2.60;;;;;;;;;;5047059;28;20116;-58
2022/09/19 02:04:30;;;;;;;13.25;2.33;;;;;;;;;;5023145;28;20041;-59
2022/09/19 02:07:03;;;;;;;15.23;2.47;;;;;;;;;;5029918;28;20544;-57
2022/09/19 02:09:55;;;;;;;13.55;2.45;;;;;;;;;;5027432;28;20033;-55
2022/09/19 02:12:25;;;;;;;13.13;2.33;;;;;;;;;;5031287;28;20040;-60
2022/09/19 02:14:54;;;;;;;19.42;2.88;;;;;;;;;;5029657;28;20033;-57
2022/09/19 02:17:34;;;;;;;14.70;2.33;;;;;;;;;;5028795;28;20390;-60
2022/09/19 02:20:09;;;;;;;12.88;2.35;;;;;;;;;;5025595;28;20092;-57
2022/09/19 02:23:02;;;;;;;13.23;2.33;;;;;;;;;;5010533;28;20055;-58
2022/09/19 02:25:32;;;;;;;12.70;2.55;;;;;;;;;;5016743;28;20075;-58
2022/09/19 02:28:08;;;;;;;12.65;2.33;;;;;;;;;;5031427;28;20048;-56
2022/09/19 02:30:34;;;;;;;11.30;2.30;;;;;;;;;;5047108;28;20087;-56
2022/09/19 02:33:04;;;;;;;14.57;2.25;;;;;;;;;;5032810;28;20029;-56
2022/09/19 02:35:41;;;;;;;12.48;2.95;;;;;;;;;;5039650;28;20120;-59
2022/09/19 02:38:29;;;;;;;11.98;2.88;;;;;;;;;;5033517;28;20032;-57
2022/09/19 02:41:36;;;;;;;13.07;2.25;;;;;;;;;;5031138;28;20048;-57
2022/09/19 02:44:30;;;;;;;10.73;2.10;;;;;;;;;;5004803;28;20038;-57
2022/09/19 02:47:32;;;;;;;12.20;2.17;;;;;;;;;;5021357;28;20089;-56
2022/09/19 02:50:06;;;;;;;15.77;2.63;;;;;;;;;;5024178;28;20036;-57
2022/09/19 02:52:33;;;;;;;12.25;2.50;;;;;;;;;;5032942;28;20029;-55
2022/09/19 02:55:28;;;;;;;8.90;2.10;;;;;;;;;;5044484;28;20040;-59
2022/09/19 02:57:58;;;;;;;16.33;2.55;;;;;;;;;;5012169;28;20049;-58
2022/09/19 03:00:25;;;;;;;25.03;2.50;;;;;;;;;;5015080;28;20145;-59
2022/09/19 03:02:56;;;;;;;11.73;2.28;;;;;;;;;;5031097;28;20036;-57
2022/09/19 03:05:25;;;;;;;16.45;2.65;;;;;;;;;;5031561;28;20029;-56
2022/09/19 03:08:05;;;;;;;14.48;2.20;;;;;;;;;;5033430;28;20084;-57
2022/09/19 03:10:35;;;;;;;14.65;2.67;;;;;;;;;;5034562;28;20041;-59
2022/09/19 03:13:05;;;;;;;19.60;2.50;;;;;;;;;;5031898;28;20434;-58
2022/09/19 03:15:40;;;;;;;12.68;2.13;;;;;;;;;;5036697;28;20109;-57
2022/09/19 03:18:10;;;;;;;11.75;2.50;;;;;;;;;;5026679;28;20097;-59
2022/09/19 03:20:37;;;;;;;16.48;2.53;;;;;;;;;;5027513;28;20040;-57
2022/09/19 03:23:04;;;;;;;13.98;2.38;;;;;;;;;;5015512;28;20029;-58
2022/09/19 03:25:30;;;;;;;16.95;2.60;;;;;;;;;;5040260;28;20028;-57
2022/09/19 03:27:56;;;;;;;15.25;2.47;;;;;;;;;;5021725;28;20419;-57
2022/09/19 03:30:22;;;;;;;21.92;3.10;;;;;;;;;;5042241;28;20108;-60
2022/09/19 03:32:48;;;;;;;24.33;2.85;;;;;;;;;;5029159;28;20471;-56
2022/09/19 03:35:14;;;;;;;17.00;2.67;;;;;;;;;;5019311;28;20117;-56
2022/09/19 03:37:40;;;;;;;15.60;2.42;;;;;;;;;;5015114;28;20113;-57
2022/09/19 03:40:06;;;;;;;13.07;2.45;;;;;;;;;;5040856;28;20102;-56
2022/09/19 03:42:34;;;;;;;16.95;3.33;;;;;;;;;;5031068;28;20041;-56
2022/09/19 03:45:00;;;;;;;14.57;2.63;;;;;;;;;;5047309;28;20028;-56
2022/09/19 03:47:27;;;;;;;15.43;2.40;;;;;;;;;;5029844;28;20474;-60
2022/09/19 03:49:52;;;;;;;19.23;2.63;;;;;;;;;;5045488;28;20036;-56
2022/09/19 03:52:18;;;;;;;16.38;3.00;;;;;;;;;;5033360;28;20033;-56
2022/09/19 03:54:44;;;;;;;14.68;2.30;;;;;;;;;;5032871;28;20345;-55
2022/09/19 03:57:11;;;;;;;18.65;2.40;;;;;;;;;;5014639;28;20438;-58
2022/09/19 03:59:39;;;;;;;17.00;2.40;;;;;;;;;;5030171;28;20069;-57
2022/09/19 04:02:06;;;;;;;17.25;2.70;;;;;;;;;;5039672;28;20533;-57
2022/09/19 04:04:32;;;;;;;19.00;2.67;;;;;;;;;;5029971;28;20116;-57
2022/09/19 04:06:57;;;;;;;12.88;2.42;;;;;;;;;;5040456;28;20072;-57
2022/09/19 04:09:23;;;;;;;16.30;2.67;;;;;;;;;;5031784;28;20053;-59
2022/09/19 04:11:48;;;;;;;20.00;3.05;;;;;;;;;;5013751;28;20041;-56
2022/09/19 04:14:15;;;;;;;12.38;2.53;;;;;;;;;;5026784;28;20036;-56
2022/09/19 04:16:41;;;;;;;15.93;2.33;;;;;;;;;;5025393;28;20072;-56
2022/09/19 04:19:09;;;;;;;14.27;2.50;;;;;;;;;;5032124;28;20128;-56
2022/09/19 04:21:35;;;;;;;18.70;2.67;;;;;;;;;;5031802;28;20457;-57
2022/09/19 04:24:00;;;;;;;14.68;2.53;;;;;;;;;;5051339;28;20120;-58
2022/09/19 04:26:26;;;;;;;13.65;2.80;;;;;;;;;;5037848;28;20168;-57
2022/09/19 04:28:52;;;;;;;14.23;2.10;;;;;;;;;;5031427;28;20063;-56
2022/09/19 04:31:17;;;;;;;16.55;2.67;;;;;;;;;;5026283;28;20071;-56
2022/09/19 04:33:43;;;;;;;17.25;2.40;;;;;;;;;;5038205;28;20104;-60
2022/09/19 04:36:08;;;;;;;13.13;2.42;;;;;;;;;;5039402;28;20037;-57
2022/09/19 04:38:34;;;;;;;19.38;2.60;;;;;;;;;;5032786;28;20052;-58
2022/09/19 04:41:01;;;;;;;10.88;2.58;;;;;;;;;;5038056;28;20041;-58
2022/09/19 04:43:27;;;;;;;13.43;2.30;;;;;;;;;;5029144;28;20036;-60
2022/09/19 04:45:54;;;;;;;10.70;2.38;;;;;;;;;;5014835;28;20029;-58
2022/09/19 04:48:20;;;;;;;9.48;2.03;;;;;;;;;;5029796;28;20026;-61
2022/09/19 04:50:50;;;;;;;18.95;3.35;;;;;;;;;;5042130;28;20094;-58
2022/09/19 04:53:19;;;;;;;12.90;2.45;;;;;;;;;;5031282;28;20033;-54
2022/09/19 04:55:49;;;;;;;9.63;2.25;;;;;;;;;;5045832;28;20047;-55
2022/09/19 04:58:15;;;;;;;10.93;2.00;;;;;;;;;;5030126;28;20470;-58
2022/09/19 05:00:41;;;;;;;13.20;3.03;;;;;;;;;;5029692;28;20029;-67
2022/09/19 05:03:15;;;;;;;12.98;2.13;;;;;;;;;;5036061;28;20067;-67
2022/09/19 05:05:50;;;;;;;15.75;2.38;;;;;;;;;;5017135;28;20164;-67
2022/09/19 05:08:25;;;;;;;13.68;2.33;;;;;;;;;;5044344;28;20386;-67
2022/09/19 05:10:53;;;;;;;12.07;2.17;;;;;;;;;;5050024;28;20033;-67
2022/09/19 05:13:18;;;;;;;10.95;2.10;;;;;;;;;;5048792;28;20039;-67
2022/09/19 05:15:44;;;;;;;11.05;2.20;;;;;;;;;;5032850;28;20033;-67
2022/09/19 05:18:10;;;;;;;17.83;2.40;;;;;;;;;;5042606;28;20036;-67
2022/09/19 05:20:37;;;;;;;13.07;2.30;;;;;;;;;;5010551;28;20030;-60
2022/09/19 05:23:03;;;;;;;19.13;2.65;;;;;;;;;;5023028;28;20037;-59
2022/09/19 05:25:30;;;;;;;12.88;2.30;;;;;;;;;;5002010;28;20383;-62
2022/09/19 05:27:56;;;;;;;11.55;2.50;;;;;;;;;;5009046;28;20057;-61
2022/09/19 05:30:24;;;;;;;10.50;2.60;;;;;;;;;;5010316;28;20471;-63
2022/09/19 05:32:50;;;;;;;12.40;2.78;;;;;;;;;;5011015;28;20443;-62
2022/09/19 05:35:16;;;;;;;11.95;2.70;;;;;;;;;;5023828;28;20037;-64
2022/09/19 05:37:42;;;;;;;13.20;2.17;;;;;;;;;;5017922;28;20033;-62
2022/09/19 05:40:10;;;;;;;11.43;2.80;;;;;;;;;;5003715;28;20049;-62
2022/09/19 05:42:41;;;;;;;13.77;2.50;;;;;;;;;;5007657;28;20040;-63
2022/09/19 05:45:09;;;;;;;15.45;2.38;;;;;;;;;;5031329;28;20037;-62
2022/09/19 05:47:34;;;;;;;14.45;2.58;;;;;;;;;;5028549;28;20038;-62
2022/09/19 05:50:00;;;;;;;10.57;2.30;;;;;;;;;;5031212;28;20036;-63
2022/09/19 05:55:09;;;;;;;13.25;2.83;;;;;;;;;;5011029;28;20477;-62
2022/09/19 05:57:35;;;;;;;12.63;2.50;;;;;;;;;;5025203;28;20402;-63
2022/09/19 06:00:01;;;;;;;14.60;2.53;;;;;;;;;;5031329;28;20055;-63
2022/09/19 06:02:27;;;;;;;14.65;2.80;;;;;;;;;;5013419;28;20462;-63
2022/09/19 06:04:52;;;;;;;8.63;2.20;;;;;;;;;;5011099;28;20073;-62
2022/09/19 06:07:19;;;;;;;11.88;2.42;;;;;;;;;;5022784;28;20438;-61
2022/09/19 06:09:52;;;;;;;14.80;2.42;;;;;;;;;;5006672;28;20591;-62
2022/09/19 06:12:18;;;;;;;19.88;2.83;;;;;;;;;;5004976;28;20026;-62
2022/09/19 06:14:44;;;;;;;16.60;2.80;;;;;;;;;;4982057;28;20114;-62
2022/09/19 06:17:11;;;;;;;14.98;2.45;;;;;;;;;;5017968;28;20120;-61
2022/09/19 06:19:36;;;;;;;11.68;2.45;;;;;;;;;;5034337;28;20049;-62
2022/09/19 06:22:03;;;;;;;11.55;3.00;;;;;;;;;;5018990;28;20063;-61
2022/09/19 06:24:30;;;;;;;14.00;2.50;;;;;;;;;;5010786;28;20462;-61
2022/09/19 06:26:55;;;;;;;14.75;2.55;;;;;;;;;;5020668;28;20033;-62
2022/09/19 06:29:20;;;;;;;17.38;3.00;;;;;;;;;;5039899;28;20040;-62
2022/09/19 06:31:46;;;;;;;13.23;3.03;;;;;;;;;;5030953;28;20037;-60
2022/09/19 06:34:12;;;;;;;13.75;2.80;;;;;;;;;;5052862;28;20025;-63
2022/09/19 06:36:37;;;;;;;17.83;3.15;;;;;;;;;;5031429;28;20390;-62
2022/09/19 06:39:03;;;;;;;21.58;3.00;;;;;;;;;;5030506;28;20075;-61
2022/09/19 06:41:30;;;;;;;17.83;2.60;;;;;;;;;;5015664;28;20030;-63
2022/09/19 06:43:56;;;;;;;12.15;2.53;;;;;;;;;;5052034;28;20028;-62
2022/09/19 06:46:21;;;;;;;15.77;2.75;;;;;;;;;;5040602;28;20026;-62
2022/09/19 06:48:48;;;;;;;15.27;2.60;;;;;;;;;;5033289;28;20037;-63
2022/09/19 06:51:14;;;;;;;14.57;2.90;;;;;;;;;;5046047;28;20397;-62
2022/09/19 06:53:39;;;;;;;11.85;2.30;;;;;;;;;;5053332;28;20029;-64
2022/09/19 06:56:05;;;;;;;9.73;2.40;;;;;;;;;;5051908;28;20041;-63
2022/09/19 06:58:30;;;;;;;16.88;2.72;;;;;;;;;;5050202;28;20035;-62
2022/09/19 07:00:58;;;;;;;13.50;2.25;;;;;;;;;;5038819;28;20458;-63
2022/09/19 07:03:24;;;;;;;7.22;2.20;;;;;;;;;;5034463;28;20033;-64
2022/09/19 07:05:51;;;;;;;10.80;2.35;;;;;;;;;;5048937;28;20025;-64
2022/09/19 07:08:16;;;;;;;11.52;2.20;;;;;;;;;;5014238;28;20033;-63
2022/09/19 07:10:42;;;;;;;12.15;2.58;;;;;;;;;;5016706;28;20029;-64
2022/09/19 07:13:09;;;;;;;13.93;2.60;;;;;;;;;;5050700;28;20037;-64
2022/09/19 07:15:35;;;;;;;14.45;2.60;;;;;;;;;;5050498;28;20041;-63
2022/09/19 07:18:01;;;;;;;9.25;2.13;;;;;;;;;;5053882;28;20044;-63
2022/09/19 07:20:28;;;;;;;11.45;2.22;;;;;;;;;;5021090;28;20490;-64
2022/09/19 07:23:02;;;;;;;9.65;2.10;;;;;;;;;;4993964;28;20038;-63
2022/09/19 07:25:32;;;;;;;8.27;2.10;;;;;;;;;;5006985;28;20034;-64
2022/09/19 07:28:02;;;;;;;15.80;2.67;;;;;;;;;;5020693;28;20080;-64
2022/09/19 07:30:28;;;;;;;10.70;2.67;;;;;;;;;;5018367;28;20033;-63
2022/09/19 07:32:59;;;;;;;13.15;2.60;;;;;;;;;;5016381;28;20037;-63
2022/09/19 07:35:27;;;;;;;14.10;2.53;;;;;;;;;;5016385;28;20464;-64
2022/09/19 07:37:54;;;;;;;11.98;2.30;;;;;;;;;;5017497;28;20038;-61
2022/09/19 07:40:19;;;;;;;9.10;2.53;;;;;;;;;;5013959;28;20374;-63
2022/09/19 07:42:44;;;;;;;9.68;2.60;;;;;;;;;;5025274;28;20029;-62
2022/09/19 07:45:10;;;;;;;11.70;2.28;;;;;;;;;;5033682;28;20037;-62
2022/09/19 07:47:42;;;;;;;10.48;2.35;;;;;;;;;;5031098;28;20534;-63
2022/09/19 07:50:07;;;;;;;13.10;2.40;;;;;;;;;;5034375;28;20040;-62
2022/09/19 07:52:33;;;;;;;7.18;1.98;;;;;;;;;;5026209;28;20112;-61
2022/09/19 07:54:58;;;;;;;11.90;1.90;;;;;;;;;;5029518;28;20034;-62
2022/09/19 07:57:24;;;;;;;12.20;1.98;;;;;;;;;;5032769;28;20484;-64
2022/09/19 07:59:49;;;;;;;13.45;1.80;;;;;;;;;;5019192;28;20053;-62
2022/09/19 08:02:14;;;;;;;16.70;2.85;;;;;;;;;;5010417;28;20040;-61
2022/09/19 08:04:40;;;;;;;9.27;1.90;;;;;;;;;;5007294;28;20438;-63
2022/09/19 08:07:06;;;;;;;12.10;2.22;;;;;;;;;;5012003;28;20368;-62
2022/09/19 08:09:32;;;;;;;10.68;2.10;;;;;;;;;;5008014;28;20202;-63
2022/09/19 08:12:04;;;;;;;7.50;1.77;;;;;;;;;;5013045;28;20138;-60
2022/09/19 08:14:29;;;;;;;18.25;2.50;;;;;;;;;;5021790;28;20064;-62
2022/09/19 08:16:55;;;;;;;9.68;1.80;;;;;;;;;;4983180;28;20066;-61
2022/09/19 08:19:21;;;;;;;9.80;2.10;;;;;;;;;;5016481;28;20049;-62
2022/09/19 08:21:46;;;;;;;10.45;2.20;;;;;;;;;;5022797;28;20471;-62
2022/09/19 08:24:11;;;;;;;10.57;1.67;;;;;;;;;;5027689;28;20519;-62
2022/09/19 08:26:37;;;;;;;11.25;2.08;;;;;;;;;;5037032;28;20038;-62
2022/09/19 08:29:02;;;;;;;7.68;1.38;;;;;;;;;;5044565;28;20473;-61
2022/09/19 08:31:27;;;;;;;10.02;1.80;;;;;;;;;;5051458;28;20032;-62
2022/09/19 08:33:53;;;;;;;10.20;1.90;;;;;;;;;;5036784;28;20044;-61
2022/09/19 08:36:18;;;;;;;9.43;1.63;;;;;;;;;;5037920;28;20060;-62
2022/09/19 08:38:44;;;;;;;9.65;1.77;;;;;;;;;;5043688;28;20616;-61
2022/09/19 08:41:34;;;;;;;9.80;1.88;;;;;;;;;;5022565;28;20033;-62
2022/09/19 08:44:54;;;;;;;12.95;1.80;;;;;;;;;;5032428;28;20116;-62
2022/09/19 08:47:23;;;;;;;9.07;1.80;;;;;;;;;;4948688;28;20064;-62
2022/09/19 08:49:57;;;;;;;12.38;2.50;;;;;;;;;;5012526;28;20049;-61
2022/09/19 08:52:44;;;;;;;9.77;1.70;;;;;;;;;;5036438;28;20072;-60
2022/09/19 08:55:37;;;;;;;8.55;1.75;;;;;;;;;;5028090;28;20033;-63
2022/09/19 08:58:14;;;;;;;8.60;1.35;;;;;;;;;;5028127;28;20457;-63
2022/09/19 09:00:43;;;;;;;14.57;1.88;;;;;;;;;;5036380;28;20469;-62
2022/09/19 09:03:54;;;;;;;11.93;2.00;;;;;;;;;;5031577;28;20037;-63
2022/09/19 09:06:38;;;;;;;7.57;1.52;;;;;;;;;;5001306;28;20033;-62
2022/09/19 09:09:20;;;;;;;8.43;1.50;;;;;;;;;;5038224;28;20367;-62
2022/09/19 09:12:10;;;;;;;6.95;1.52;;;;;;;;;;5042819;28;20706;-63
2022/09/19 09:14:38;;;;;;;5.00;1.35;;;;;;;;;;5024286;28;20056;-61
2022/09/19 09:17:31;;;;;;;7.70;1.35;;;;;;;;;;5042273;28;20033;-62
2022/09/19 09:20:36;;;;;;;7.93;1.75;;;;;;;;;;5030316;28;20050;-62
2022/09/19 09:23:16;;;;;;;6.80;1.52;;;;;;;;;;4989527;28;20034;-62
2022/09/19 09:25:47;;;;;;;7.55;1.63;;;;;;;;;;5030504;28;20037;-62
2022/09/19 09:28:26;;;;;;;9.45;1.38;;;;;;;;;;5030901;28;20034;-60
2022/09/19 09:31:04;;;;;;;5.05;1.10;;;;;;;;;;5031457;28;20033;-62
2022/09/19 09:33:37;;;;;;;6.93;1.40;;;;;;;;;;5036240;28;20033;-62
2022/09/19 09:36:27;;;;;;;8.15;1.63;;;;;;;;;;5043125;28;20425;-61
2022/09/19 09:39:01;;;;;;;6.22;1.30;;;;;;;;;;5033105;28;20470;-61
2022/09/19 09:41:49;;;;;;;8.45;1.52;;;;;;;;;;5030758;28;20041;-64
2022/09/19 09:44:23;;;;;;;7.03;1.20;;;;;;;;;;5030927;28;20033;-63
2022/09/19 09:46:58;;;;;;;9.00;1.38;;;;;;;;;;5041245;28;20033;-69
2022/09/19 09:49:29;;;;;;;5.82;1.40;;;;;;;;;;5037446;28;20049;-68
2022/09/19 09:51:54;;;;;;;;;;;;;;;;;;5030392;28;20037;-66
2022/09/19 09:57:18;;;;;;;7.80;1.50;;;;;;;;;;5030189;28;20129;-65
2022/09/19 10:03:34;;;;;;;8.18;1.58;;;;;;;;;;5044297;28;20397;-67
2022/09/19 10:06:09;;;;;;;7.90;1.58;;;;;;;;;;4991310;28;20402;-67
2022/09/19 10:09:09;;;;;;;6.50;1.48;;;;;;;;;;5013917;28;20049;-68
2022/09/19 10:12:15;;;;;;;7.68;1.50;;;;;;;;;;5039757;28;20033;-68
2022/09/19 10:14:41;;;;;;;6.45;1.38;;;;;;;;;;5006247;28;20448;-65
2022/09/19 10:17:07;;;;;;;4.88;1.17;;;;;;;;;;5054139;28;20037;-62
2022/09/19 10:19:40;;;;;;;6.38;1.48;;;;;;;;;;5054144;28;20055;-60
2022/09/19 10:22:14;;;;;;;5.68;1.30;;;;;;;;;;5051279;28;20036;-60
2022/09/19 10:24:55;;;;;;;7.53;1.80;;;;;;;;;;5053382;28;20118;-62
2022/09/19 10:27:26;;;;;;;7.70;1.70;;;;;;;;;;5048541;28;20469;-61
2022/09/19 10:29:59;;;;;;;6.95;1.75;;;;;;;;;;5033222;28;20041;-59
2022/09/19 10:32:37;;;;;;;5.97;1.65;;;;;;;;;;5043062;28;20489;-62
2022/09/19 10:35:27;;;;;;;9.10;1.35;;;;;;;;;;5036602;28;20472;-61
2022/09/19 10:38:04;;;;;;;5.68;1.35;;;;;;;;;;5031325;28;20734;-61
2022/09/19 10:40:31;;;;;;;5.93;1.35;;;;;;;;;;5019963;28;20041;-61
2022/09/19 10:42:58;;;;;;;6.65;1.35;;;;;;;;;;5040321;28;20045;-60
2022/09/19 10:45:33;;;;;;;8.65;1.48;;;;;;;;;;5015685;28;20036;-62
2022/09/19 10:48:19;;;;;;;6.68;1.70;;;;;;;;;;5053699;28;20037;-61
2022/09/19 10:50:50;;;;;;;3.17;1.10;;;;;;;;;;4997912;28;20634;-59
2022/09/19 10:53:22;;;;;;;5.18;1.20;;;;;;;;;;5032738;28;20021;-60
2022/09/19 10:55:48;;;;;;;7.10;1.30;;;;;;;;;;5017460;28;20033;-62
2022/09/19 10:58:16;;;;;;;7.32;1.40;;;;;;;;;;5016467;28;20038;-62
2022/09/19 11:00:50;;;;;;;12.93;1.85;;;;;;;;;;5015086;28;20450;-62
2022/09/19 11:03:25;;;;;;;6.75;1.60;;;;;;;;;;5050643;28;20056;-63
2022/09/19 11:06:10;;;;;;;6.20;1.40;;;;;;;;;;5039761;28;20040;-62
2022/09/19 11:08:44;;;;;;;11.30;2.13;;;;;;;;;;5052893;28;20040;-62
2022/09/19 11:11:48;;;;;;;7.63;1.23;;;;;;;;;;5050065;28;20382;-62
2022/09/19 11:14:18;;;;;;;10.50;2.35;;;;;;;;;;5049731;28;20029;-61
2022/09/19 11:17:13;;;;;;;8.65;1.90;;;;;;;;;;5042402;28;20041;-60
2022/09/19 11:20:01;;;;;;;11.20;1.75;;;;;;;;;;5026551;28;20046;-61
2022/09/19 11:22:47;;;;;;;7.40;1.35;;;;;;;;;;5013297;28;20144;-62
2022/09/19 11:26:04;;;;;;;6.68;1.40;;;;;;;;;;5016454;28;20056;-61
2022/09/19 11:28:59;;;;;;;8.70;1.95;;;;;;;;;;5002670;28;20121;-61
2022/09/19 11:31:42;;;;;;;8.90;1.60;;;;;;;;;;5013912;28;20475;-63
2022/09/19 11:34:36;;;;;;;8.90;1.45;;;;;;;;;;5028871;28;20102;-61
2022/09/19 11:37:25;;;;;;;8.48;1.73;;;;;;;;;;5031481;28;20101;-62
2022/09/19 11:40:30;;;;;;;5.82;1.20;;;;;;;;;;5028138;28;20030;-61
2022/09/19 11:43:19;;;;;;;7.47;1.48;;;;;;;;;;4995898;28;20044;-61
2022/09/19 11:45:56;;;;;;;7.43;1.60;;;;;;;;;;5029935;28;20033;-63
2022/09/19 11:48:40;;;;;;;10.77;1.42;;;;;;;;;;5014117;28;20030;-62
2022/09/19 11:51:12;;;;;;;6.07;1.20;;;;;;;;;;5022965;28;20048;-62
2022/09/19 11:53:46;;;;;;;7.18;1.70;;;;;;;;;;5032420;28;20040;-63
2022/09/19 11:56:49;;;;;;;5.97;1.33;;;;;;;;;;4998794;28;20042;-63
2022/09/19 11:59:47;;;;;;;6.35;1.30;;;;;;;;;;5011600;28;20125;-63
2022/09/19 12:02:27;;;;;;;5.18;1.30;;;;;;;;;;4980003;28;20081;-62
2022/09/19 12:05:18;;;;;;;3.85;1.30;;;;;;;;;;5018335;28;20076;-62
2022/09/19 12:07:57;;;;;;;5.25;1.58;;;;;;;;;;5027666;28;20091;-62
2022/09/19 12:10:31;;;;;;;5.22;1.17;;;;;;;;;;5022708;28;20077;-60
2022/09/19 12:13:16;;;;;;;4.68;1.02;;;;;;;;;;5003901;28;20057;-61
2022/09/19 12:15:47;;;;;;;6.20;1.27;;;;;;;;;;5009980;28;20041;-61
2022/09/19 12:18:24;;;;;;;;;;;;;;;;;;5013167;28;20041;-60
2022/09/19 12:20:55;;;;;;;3.03;0.98;;;;;;;;;;5026285;28;20464;-61
2022/09/19 12:26:27;;;;;;;7.32;1.30;;;;;;;;;;5015666;28;20040;-61
2022/09/19 12:29:04;;;;;;;5.18;1.13;;;;;;;;;;5001072;28;20038;-61
2022/09/19 12:31:35;;;;;;;4.25;1.45;;;;;;;;;;4992139;28;20046;-62
2022/09/19 12:34:21;;;;;;;4.57;1.10;;;;;;;;;;5026988;28;20378;-61
2022/09/19 12:36:52;;;;;;;3.45;1.20;;;;;;;;;;5013988;28;20046;-62
2022/09/19 12:39:58;;;;;;;4.20;1.20;;;;;;;;;;5022125;28;20486;-62
2022/09/19 12:42:44;;;;;;;4.97;1.38;;;;;;;;;;5012267;28;20052;-63
2022/09/19 12:45:44;;;;;;;5.13;1.05;;;;;;;;;;5024147;28;20040;-61
2022/09/19 12:48:15;;;;;;;3.35;1.00;;;;;;;;;;4996110;28;20041;-61
2022/09/19 12:50:49;;;;;;;2.05;0.85;;;;;;;;;;5010124;28;20045;-61
2022/09/19 12:53:34;;;;;;;6.15;1.33;;;;;;;;;;5021475;28;20045;-60
2022/09/19 12:56:26;;;;;;;5.97;1.35;;;;;;;;;;5013272;28;20442;-62
2022/09/19 12:59:18;;;;;;;3.97;1.00;;;;;;;;;;5031716;28;20036;-61
2022/09/19 13:01:49;;;;;;;1.55;0.80;;;;;;;;;;5023006;28;20655;-61
2022/09/19 13:04:28;;;;;;;4.10;1.10;;;;;;;;;;5031890;28;20068;-61
2022/09/19 13:07:09;;;;;;;5.95;1.30;;;;;;;;;;5027948;28;20030;-61
2022/09/19 13:10:00;;;;;;;4.13;1.20;;;;;;;;;;5031202;28;20041;-61
2022/09/19 13:12:28;;;;;;;;;;;;;;;;;;5026892;28;20040;-61
2022/09/19 13:14:59;;;;;;;5.20;1.00;;;;;;;;;;5020262;28;20273;-60
2022/09/19 13:25:50;;;;;;;3.80;1.02;;;;;;;;;;4990077;28;20041;-61
2022/09/19 13:28:19;;;;;;;3.00;0.90;;;;;;;;;;5002685;28;20049;-61
2022/09/19 13:31:03;;;;;;;3.45;1.00;;;;;;;;;;5014222;28;20068;-61
2022/09/19 13:33:45;;;;;;;4.38;0.80;;;;;;;;;;5020157;28;20042;-63
2022/09/19 13:36:17;;;;;;;2.42;1.00;;;;;;;;;;5012461;28;20112;-61
2022/09/19 13:38:53;;;;;;;1.52;0.60;;;;;;;;;;5028459;28;20529;-61
2022/09/19 13:41:26;;;;;;;2.20;0.70;;;;;;;;;;4998447;28;20125;-65
2022/09/19 13:44:09;;;;;;;5.65;1.00;;;;;;;;;;5002212;28;20040;-64
2022/09/19 13:46:58;;;;;;;1.95;0.80;;;;;;;;;;4994297;28;20035;-64
2022/09/19 13:49:33;;;;;;;4.97;1.00;;;;;;;;;;5004182;28;20034;-66
2022/09/19 13:52:09;;;;;;;5.60;1.30;;;;;;;;;;4994087;28;20073;-63
2022/09/19 13:55:01;;;;;;;2.20;0.75;;;;;;;;;;5019740;28;20037;-63
2022/09/19 13:57:30;;;;;;;4.00;1.02;;;;;;;;;;5010918;28;20040;-64
2022/09/19 14:00:00;;;;;;;2.97;1.25;;;;;;;;;;5021097;28;20439;-62
2022/09/19 14:03:01;;;;;;;3.38;1.50;;;;;;;;;;5030787;28;20039;-65
2022/09/19 14:05:34;;;;;;;7.85;1.80;;;;;;;;;;4995360;28;20479;-67
2022/09/19 14:08:01;;;;;;;4.88;1.50;;;;;;;;;;4976925;28;20124;-64
2022/09/19 14:10:48;;;;;;;6.30;1.88;;;;;;;;;;4995326;28;20092;-66
2022/09/19 14:13:26;;;;;;;5.28;2.00;;;;;;;;;;5015010;28;20030;-63
2022/09/19 14:16:05;;;;;;;6.90;2.60;;;;;;;;;;5031046;28;20036;-62
2022/09/19 14:18:36;;;;;;;8.60;2.60;;;;;;;;;;5027563;28;20050;-65
2022/09/19 14:21:03;;;;;;;7.53;1.90;;;;;;;;;;5008347;28;20042;-64
2022/09/19 14:23:42;;;;;;;6.03;1.50;;;;;;;;;;5015777;28;20030;-66
2022/09/19 14:26:19;;;;;;;5.05;2.13;;;;;;;;;;5030706;28;20089;-64
2022/09/19 14:29:23;;;;;;;6.75;2.67;;;;;;;;;;5028651;28;20040;-64
2022/09/19 14:32:30;;;;;;;8.85;2.08;;;;;;;;;;5029417;28;20120;-63
2022/09/19 14:35:03;;;;;;;7.85;2.30;;;;;;;;;;5002803;28;20033;-63
2022/09/19 14:37:37;;;;;;;7.78;1.77;;;;;;;;;;5030055;28;20037;-64
2022/09/19 14:40:15;;;;;;;8.80;2.08;;;;;;;;;;5004463;28;20033;-65
2022/09/19 14:42:56;;;;;;;4.97;1.48;;;;;;;;;;4997983;28;20061;-64
2022/09/19 14:45:37;;;;;;;9.02;1.50;;;;;;;;;;5019947;28;20069;-64
2022/09/19 14:48:14;;;;;;;6.22;2.20;;;;;;;;;;5034839;28;20545;-63
2022/09/19 14:50:45;;;;;;;3.45;1.20;;;;;;;;;;5011964;28;20084;-64
2022/09/19 14:53:25;;;;;;;5.90;1.33;;;;;;;;;;5033514;28;20037;-63
2022/09/19 14:55:55;;;;;;;5.15;1.48;;;;;;;;;;5008032;28;20038;-62
2022/09/19 14:58:33;;;;;;;5.32;1.67;;;;;;;;;;5031806;28;20455;-63
2022/09/19 15:01:09;;;;;;;5.07;1.60;;;;;;;;;;5027321;28;20466;-63
2022/09/19 15:03:58;;;;;;;5.32;1.60;;;;;;;;;;5033589;28;20037;-64
2022/09/19 15:06:35;;;;;;;7.38;2.20;;;;;;;;;;5029561;28;20066;-63
2022/09/19 15:09:02;;;;;;;6.93;1.60;;;;;;;;;;5027194;28;20038;-64
2022/09/19 15:11:29;;;;;;;7.72;1.50;;;;;;;;;;5033649;28;20030;-65
2022/09/19 15:13:56;;;;;;;6.35;1.50;;;;;;;;;;5034432;28;20033;-63
2022/09/19 15:16:23;;;;;;;4.20;1.55;;;;;;;;;;5019393;28;20034;-63
2022/09/19 15:18:51;;;;;;;5.78;1.50;;;;;;;;;;5013681;28;20798;-64
2022/09/19 15:21:23;;;;;;;5.07;1.80;;;;;;;;;;5030773;28;20526;-63
2022/09/19 15:23:51;;;;;;;7.35;1.58;;;;;;;;;;5034030;28;20196;-63
2022/09/19 15:26:20;;;;;;;5.47;1.70;;;;;;;;;;5029551;28;20083;-62
2022/09/19 15:29:01;;;;;;;4.75;1.30;;;;;;;;;;5033594;28;20109;-62
2022/09/19 15:31:30;;;;;;;4.68;1.85;;;;;;;;;;5030779;28;20037;-65
2022/09/19 15:34:15;;;;;;;4.50;1.25;;;;;;;;;;5011176;28;20034;-61
2022/09/19 15:36:43;;;;;;;6.15;1.58;;;;;;;;;;5013108;28;20037;-62
2022/09/19 15:39:11;;;;;;;3.78;1.50;;;;;;;;;;5013740;28;20032;-61
2022/09/19 15:41:37;;;;;;;7.07;1.98;;;;;;;;;;5012354;28;20060;-61